Time;durP1;ratioP1;P1;durP2;ratioP2;P2;SDS_P1;SDS_P2;PMS_P1;PMS_P2;Temp;Humidity;BMP_temperature;BMP_pressure;BME280_temperature;BME280_humidity;BME280_pressure;Samples;Min_cycle;Max_cycle;Signal;HPM_P1;HPM_P2
2021/07/03 00:01:17;;;;;;;8.43;5.28;;;15.80;99.90;;;;;;4977279;28;20410;-81
2021/07/03 00:03:43;;;;;;;5.95;5.32;;;15.70;99.90;;;;;;4977502;28;20468;-81
2021/07/03 00:06:09;;;;;;;9.27;5.45;;;15.40;99.90;;;;;;4977439;28;20117;-81
2021/07/03 00:08:35;;;;;;;7.15;5.68;;;15.70;99.90;;;;;;4977404;28;20050;-81
2021/07/03 00:11:03;;;;;;;7.60;5.30;;;15.90;99.90;;;;;;4977437;28;20108;-81
2021/07/03 00:13:29;;;;;;;9.10;5.30;;;16.00;99.90;;;;;;4977295;28;20474;-80
2021/07/03 00:15:55;;;;;;;9.57;5.30;;;16.00;99.90;;;;;;4977283;28;20022;-81
2021/07/03 00:18:21;;;;;;;6.43;5.43;;;15.80;99.90;;;;;;4977296;28;20113;-81
2021/07/03 00:20:47;;;;;;;8.70;5.43;;;15.70;99.90;;;;;;4994705;28;20105;-81
2021/07/03 00:23:13;;;;;;;6.88;5.32;;;15.70;99.90;;;;;;4994586;28;20041;-80
2021/07/03 00:25:39;;;;;;;7.50;4.80;;;15.70;99.90;;;;;;4977130;28;20034;-81
2021/07/03 00:28:05;;;;;;;5.43;4.93;;;15.30;99.90;;;;;;4977138;28;20026;-81
2021/07/03 00:30:31;;;;;;;7.47;5.30;;;15.20;99.90;;;;;;4977029;28;20030;-81
2021/07/03 00:32:57;;;;;;;5.85;4.85;;;15.20;99.90;;;;;;4994465;28;20022;-80
2021/07/03 00:35:23;;;;;;;8.75;5.20;;;15.50;99.90;;;;;;4976935;28;20022;-81
2021/07/03 00:37:49;;;;;;;6.88;5.13;;;15.70;99.90;;;;;;4994397;28;20470;-80
2021/07/03 00:40:15;;;;;;;6.15;5.28;;;15.70;99.90;;;;;;4976807;28;20501;-80
2021/07/03 00:42:42;;;;;;;8.52;5.32;;;15.80;99.90;;;;;;4976858;28;20022;-80
2021/07/03 00:45:08;;;;;;;6.05;5.25;;;15.80;99.90;;;;;;4976882;28;20485;-80
2021/07/03 00:47:35;;;;;;;7.78;5.07;;;15.90;99.90;;;;;;4994143;28;20473;-80
2021/07/03 00:50:02;;;;;;;6.95;5.30;;;15.70;99.90;;;;;;4994173;28;20037;-81
2021/07/03 00:52:28;;;;;;;8.45;5.50;;;15.80;99.90;;;;;;4976685;28;20034;-80
2021/07/03 00:54:54;;;;;;;8.90;5.03;;;15.80;99.90;;;;;;4976749;28;20022;-80
2021/07/03 00:57:19;;;;;;;8.70;5.70;;;15.60;99.90;;;;;;4994063;28;20101;-81
2021/07/03 00:59:47;;;;;;;9.77;5.82;;;15.60;99.90;;;;;;4993773;28;20094;-80
2021/07/03 01:02:16;;;;;;;8.18;5.43;;;15.60;99.90;;;;;;4976635;28;20397;-81
2021/07/03 01:04:42;;;;;;;9.52;5.32;;;15.40;99.90;;;;;;4976544;28;20038;-81
2021/07/03 01:07:10;;;;;;;6.38;5.13;;;15.50;99.90;;;;;;4976455;28;20064;-81
2021/07/03 01:09:36;;;;;;;7.65;4.82;;;15.40;99.90;;;;;;4976472;28;20023;-81
2021/07/03 01:12:03;;;;;;;6.53;5.03;;;15.50;99.90;;;;;;4976538;28;20095;-81
2021/07/03 01:14:29;;;;;;;6.35;5.30;;;15.40;99.90;;;;;;4976458;28;20026;-81
2021/07/03 01:16:55;;;;;;;6.25;5.10;;;15.50;99.90;;;;;;4976489;28;20026;-81
2021/07/03 01:19:21;;;;;;;6.70;4.93;;;15.60;99.90;;;;;;4976455;28;20027;-81
2021/07/03 01:21:56;;;;;;;11.02;5.70;;;15.80;99.90;;;;;;4976364;28;20161;-80
2021/07/03 01:24:24;;;;;;;9.38;5.20;;;15.60;99.90;;;;;;4976421;28;20031;-80
2021/07/03 01:26:54;;;;;;;6.53;5.13;;;15.80;99.90;;;;;;4976240;28;20371;-81
2021/07/03 01:29:22;;;;;;;6.85;5.63;;;15.80;99.90;;;;;;4976347;28;20084;-80
2021/07/03 01:31:50;;;;;;;10.38;5.28;;;15.70;99.90;;;;;;4976302;28;20375;-80
2021/07/03 01:34:18;;;;;;;6.43;5.00;;;15.70;99.90;;;;;;4976278;28;20077;-81
2021/07/03 01:36:44;;;;;;;7.35;5.35;;;15.70;99.90;;;;;;4976297;28;20040;-81
2021/07/03 01:39:10;;;;;;;9.85;5.70;;;15.70;99.90;;;;;;4976247;28;20030;-81
2021/07/03 01:41:37;;;;;;;7.30;5.25;;;15.50;99.90;;;;;;4976264;28;20109;-81
2021/07/03 01:44:03;;;;;;;8.32;5.18;;;15.30;99.90;;;;;;4976196;28;20065;-80
2021/07/03 01:46:29;;;;;;;7.13;5.43;;;15.40;99.90;;;;;;4993549;28;20495;-81
2021/07/03 01:49:00;;;;;;;12.55;5.68;;;15.40;99.90;;;;;;4976676;28;20026;-81
2021/07/03 01:51:25;;;;;;;8.38;5.38;;;15.40;99.90;;;;;;4977858;28;20022;-81
2021/07/03 01:53:51;;;;;;;6.53;5.45;;;15.50;99.90;;;;;;4979946;28;20023;-81
2021/07/03 01:56:17;;;;;;;5.20;4.70;;;15.50;99.90;;;;;;4979921;28;20084;-81
2021/07/03 01:58:42;;;;;;;7.25;5.70;;;15.40;99.90;;;;;;4979827;28;20470;-81
2021/07/03 02:01:08;;;;;;;6.07;5.47;;;15.10;99.90;;;;;;4997043;28;20104;-81
2021/07/03 02:03:34;;;;;;;8.35;5.50;;;14.80;99.90;;;;;;4979843;28;20045;-81
2021/07/03 02:05:59;;;;;;;6.03;5.10;;;14.70;99.90;;;;;;4997094;28;20030;-81
2021/07/03 02:08:25;;;;;;;6.65;4.90;;;15.00;99.90;;;;;;4997662;28;20455;-81
2021/07/03 02:10:51;;;;;;;7.70;5.30;;;15.20;99.90;;;;;;4997136;28;20054;-81
2021/07/03 02:13:16;;;;;;;7.43;5.20;;;15.30;99.90;;;;;;4979585;28;20029;-81
2021/07/03 02:15:43;;;;;;;9.65;5.15;;;15.40;99.90;;;;;;4979603;28;20054;-81
2021/07/03 02:18:08;;;;;;;6.95;5.47;;;15.30;99.90;;;;;;4996952;28;20113;-81
2021/07/03 02:20:34;;;;;;;6.90;5.68;;;15.20;99.90;;;;;;4996936;28;20054;-81
2021/07/03 02:23:00;;;;;;;9.85;5.57;;;14.90;99.90;;;;;;4996892;28;20030;-81
2021/07/03 02:25:27;;;;;;;8.50;4.82;;;14.60;99.90;;;;;;4979220;28;20057;-81
2021/07/03 02:27:54;;;;;;;7.82;5.40;;;14.50;99.90;;;;;;4979240;28;20026;-81
2021/07/03 02:30:20;;;;;;;7.80;5.50;;;14.80;99.90;;;;;;4979259;28;20027;-81
2021/07/03 02:32:46;;;;;;;8.48;5.03;;;14.60;99.90;;;;;;4979188;28;20030;-81
2021/07/03 02:35:13;;;;;;;7.65;5.30;;;14.80;99.90;;;;;;4979060;28;20081;-81
2021/07/03 02:37:39;;;;;;;11.73;5.18;;;14.90;99.90;;;;;;4996611;28;20018;-81
2021/07/03 02:40:09;;;;;;;10.63;5.28;;;14.90;99.90;;;;;;4996560;28;20022;-81
2021/07/03 02:42:34;;;;;;;7.07;5.18;;;15.10;99.90;;;;;;4979560;28;20493;-81
2021/07/03 02:45:00;;;;;;;7.75;5.45;;;15.10;99.90;;;;;;4996474;28;20046;-81
2021/07/03 02:47:26;;;;;;;7.20;4.63;;;15.20;99.90;;;;;;4979190;28;20026;-81
2021/07/03 02:49:51;;;;;;;7.03;4.95;;;15.10;99.90;;;;;;4978979;28;20539;-80
2021/07/03 02:52:17;;;;;;;6.18;4.90;;;15.10;99.90;;;;;;4978972;28;20022;-80
2021/07/03 02:54:43;;;;;;;7.15;5.38;;;15.00;99.90;;;;;;4996304;28;20022;-81
2021/07/03 02:57:08;;;;;;;6.80;5.10;;;15.20;99.90;;;;;;4996217;28;20046;-81
2021/07/03 02:59:34;;;;;;;7.03;4.70;;;15.20;99.90;;;;;;4978688;28;20038;-80
2021/07/03 03:02:00;;;;;;;9.93;5.10;;;14.80;99.90;;;;;;4977786;28;20046;-81
2021/07/03 03:04:26;;;;;;;7.47;4.95;;;15.00;99.90;;;;;;4995602;28;20113;-80
2021/07/03 03:06:51;;;;;;;7.07;5.30;;;15.00;99.90;;;;;;4979383;28;20122;-81
2021/07/03 03:09:17;;;;;;;6.25;5.22;;;14.80;99.90;;;;;;4995991;28;20030;-81
2021/07/03 03:11:43;;;;;;;7.35;5.63;;;14.70;99.90;;;;;;4978491;28;20109;-81
2021/07/03 03:14:09;;;;;;;8.43;5.22;;;14.70;99.90;;;;;;4996205;28;20019;-81
2021/07/03 03:16:35;;;;;;;6.72;5.65;;;15.00;99.90;;;;;;4996151;28;20038;-80
2021/07/03 03:19:01;;;;;;;6.85;4.70;;;15.20;99.90;;;;;;4978360;28;20022;-80
2021/07/03 03:21:26;;;;;;;9.35;5.45;;;14.90;99.90;;;;;;4978307;28;20614;-80
2021/07/03 03:23:52;;;;;;;6.78;5.22;;;14.90;99.90;;;;;;4995688;28;20053;-81
2021/07/03 03:26:18;;;;;;;13.18;5.93;;;14.90;99.90;;;;;;4978220;28;20486;-80
2021/07/03 03:28:44;;;;;;;6.25;5.53;;;14.60;99.90;;;;;;4978276;28;20022;-81
2021/07/03 03:31:10;;;;;;;7.22;5.07;;;14.40;99.90;;;;;;4978103;28;20023;-81
2021/07/03 03:33:36;;;;;;;10.00;5.18;;;14.70;99.90;;;;;;4995558;28;20109;-81
2021/07/03 03:36:03;;;;;;;8.30;4.90;;;14.60;99.90;;;;;;4995804;28;20121;-80
2021/07/03 03:38:29;;;;;;;6.53;5.10;;;14.60;99.90;;;;;;4995507;28;20573;-80
2021/07/03 03:40:55;;;;;;;7.80;5.68;;;14.80;99.90;;;;;;4977873;28;20022;-81
2021/07/03 03:43:20;;;;;;;5.53;4.78;;;14.90;99.90;;;;;;4977912;28;20034;-81
2021/07/03 03:45:46;;;;;;;9.57;5.13;;;15.10;99.90;;;;;;4977811;28;20030;-80
2021/07/03 03:48:12;;;;;;;9.20;5.80;;;15.20;99.90;;;;;;4977830;28;20056;-80
2021/07/03 03:50:38;;;;;;;8.80;5.35;;;15.20;99.90;;;;;;4977798;28;20390;-81
2021/07/03 03:53:04;;;;;;;8.60;5.85;;;15.00;99.90;;;;;;4977773;28;20046;-80
2021/07/03 03:55:30;;;;;;;10.23;5.93;;;15.00;99.90;;;;;;4977674;28;20437;-80
2021/07/03 03:57:56;;;;;;;12.80;5.72;;;14.80;99.90;;;;;;4995082;28;20022;-81
2021/07/03 04:00:22;;;;;;;9.60;4.97;;;14.50;99.90;;;;;;4977321;28;20046;-80
2021/07/03 04:02:48;;;;;;;7.45;4.95;;;14.70;99.90;;;;;;4995012;28;20081;-80
2021/07/03 04:05:15;;;;;;;9.07;5.65;;;15.00;99.90;;;;;;4977597;28;20421;-82
2021/07/03 04:07:42;;;;;;;7.18;5.45;;;14.80;99.90;;;;;;4994876;28;20469;-82
2021/07/03 04:10:10;;;;;;;6.60;5.63;;;14.50;99.90;;;;;;4977506;28;20053;-82
2021/07/03 04:12:37;;;;;;;10.27;5.75;;;14.30;99.90;;;;;;4977335;28;20025;-81
2021/07/03 04:15:04;;;;;;;7.63;5.72;;;14.20;99.90;;;;;;4994454;28;20489;-83
2021/07/03 04:17:30;;;;;;;8.40;5.40;;;14.10;99.90;;;;;;4994493;28;20038;-81
2021/07/03 04:19:55;;;;;;;7.30;5.75;;;14.30;99.90;;;;;;4977227;28;20023;-83
2021/07/03 04:22:21;;;;;;;12.52;5.68;;;14.40;99.90;;;;;;4977240;28;20026;-81
2021/07/03 04:24:47;;;;;;;6.13;5.00;;;14.40;99.90;;;;;;4994673;28;20029;-81
2021/07/03 04:27:13;;;;;;;8.98;5.53;;;14.70;99.90;;;;;;4977130;28;20030;-81
2021/07/03 04:29:39;;;;;;;7.70;5.45;;;14.80;99.90;;;;;;4994506;28;20019;-81
2021/07/03 04:32:05;;;;;;;6.93;5.40;;;14.80;99.90;;;;;;4994469;28;20057;-81
2021/07/03 04:34:31;;;;;;;6.03;5.03;;;14.80;99.90;;;;;;4977025;28;20474;-81
2021/07/03 04:36:57;;;;;;;8.32;5.07;;;14.60;99.90;;;;;;4976991;28;20032;-81
2021/07/03 04:39:24;;;;;;;7.97;5.22;;;14.60;99.90;;;;;;4976879;28;20034;-81
2021/07/03 04:41:51;;;;;;;7.78;5.47;;;14.70;99.90;;;;;;4976908;28;20026;-80
2021/07/03 04:44:17;;;;;;;5.60;4.97;;;14.60;99.90;;;;;;4977141;28;20026;-80
2021/07/03 04:46:44;;;;;;;6.78;4.93;;;14.70;99.90;;;;;;4976629;28;20022;-81
2021/07/03 04:49:10;;;;;;;6.07;5.10;;;14.90;99.90;;;;;;4994735;28;20034;-81
2021/07/03 04:51:36;;;;;;;6.32;5.05;;;15.10;99.90;;;;;;4976727;28;20023;-81
2021/07/03 04:54:03;;;;;;;6.97;4.95;;;15.10;99.90;;;;;;4994382;28;20393;-81
2021/07/03 04:56:29;;;;;;;8.48;5.68;;;15.30;99.90;;;;;;4976647;28;20474;-81
2021/07/03 04:58:56;;;;;;;7.00;5.57;;;15.20;99.90;;;;;;4976636;28;20033;-81
2021/07/03 05:01:22;;;;;;;7.32;5.25;;;15.20;99.90;;;;;;4976370;28;20050;-81
2021/07/03 05:03:48;;;;;;;7.07;5.47;;;15.40;99.90;;;;;;4976640;28;20052;-81
2021/07/03 05:06:13;;;;;;;9.25;5.75;;;15.50;99.90;;;;;;4976533;28;20533;-81
2021/07/03 05:08:39;;;;;;;7.38;5.50;;;15.30;99.90;;;;;;4976549;28;20117;-82
2021/07/03 05:11:05;;;;;;;6.97;5.13;;;15.20;99.90;;;;;;4976556;28;20077;-80
2021/07/03 05:13:31;;;;;;;6.30;5.05;;;15.20;99.90;;;;;;4976462;28;20478;-81
2021/07/03 05:15:57;;;;;;;8.48;5.18;;;15.30;99.90;;;;;;4976403;28;20375;-81
2021/07/03 05:18:22;;;;;;;7.65;5.35;;;15.40;99.90;;;;;;4976398;28;20508;-81
2021/07/03 05:20:48;;;;;;;8.70;5.45;;;15.60;99.90;;;;;;4976365;28;20116;-80
2021/07/03 05:23:14;;;;;;;8.00;5.00;;;15.80;99.90;;;;;;4976378;28;20028;-80
2021/07/03 05:25:42;;;;;;;8.07;5.15;;;15.90;99.90;;;;;;4976768;28;20041;-80
2021/07/03 05:28:08;;;;;;;6.80;5.05;;;15.90;99.90;;;;;;4980383;28;20497;-81
2021/07/03 05:30:34;;;;;;;9.20;5.50;;;15.90;99.90;;;;;;4997877;28;20037;-82
2021/07/03 05:33:00;;;;;;;8.30;5.30;;;16.00;99.90;;;;;;4997799;28;20422;-80
2021/07/03 05:35:25;;;;;;;7.70;5.57;;;16.00;99.90;;;;;;4980282;28;20470;-80
2021/07/03 05:37:51;;;;;;;6.78;5.00;;;16.20;99.90;;;;;;4980219;28;20030;-83
2021/07/03 05:40:17;;;;;;;5.57;4.55;;;16.20;99.90;;;;;;4980186;28;20481;-83
2021/07/03 05:42:44;;;;;;;8.88;5.45;;;16.20;99.90;;;;;;4997610;28;20048;-82
2021/07/03 05:45:13;;;;;;;7.47;5.82;;;16.40;99.90;;;;;;4997608;28;20034;-82
2021/07/03 05:47:39;;;;;;;7.53;5.50;;;16.60;99.90;;;;;;4979914;28;20030;-82
2021/07/03 05:50:06;;;;;;;6.07;4.85;;;16.60;99.90;;;;;;4997482;28;20027;-80
2021/07/03 05:52:32;;;;;;;7.55;5.28;;;16.60;99.90;;;;;;4979883;28;20026;-82
2021/07/03 05:54:58;;;;;;;8.48;5.25;;;16.60;99.90;;;;;;4997402;28;20031;-83
2021/07/03 05:57:26;;;;;;;5.53;4.70;;;16.60;99.90;;;;;;4997308;28;20028;-80
2021/07/03 05:59:52;;;;;;;8.65;5.47;;;16.70;99.90;;;;;;4979557;28;20113;-80
2021/07/03 06:02:17;;;;;;;7.65;5.25;;;16.70;99.90;;;;;;4980306;28;20061;-83
2021/07/03 06:04:43;;;;;;;8.30;5.00;;;16.70;99.90;;;;;;4979758;28;20035;-80
2021/07/03 06:07:09;;;;;;;6.15;4.85;;;16.80;99.90;;;;;;4979621;28;20059;-82
2021/07/03 06:09:34;;;;;;;7.78;5.30;;;17.00;99.90;;;;;;4979578;28;20022;-82
2021/07/03 06:12:00;;;;;;;7.95;5.22;;;17.00;99.90;;;;;;4997088;28;20018;-83
2021/07/03 06:14:26;;;;;;;7.22;5.45;;;17.10;99.90;;;;;;4979866;28;20030;-82
2021/07/03 06:16:52;;;;;;;7.22;5.20;;;17.10;99.90;;;;;;4979520;28;20030;-82
2021/07/03 06:19:20;;;;;;;6.32;5.32;;;17.20;99.90;;;;;;4979536;28;20026;-82
2021/07/03 06:21:46;;;;;;;6.43;5.05;;;17.10;99.90;;;;;;4979440;28;20030;-82
2021/07/03 06:24:13;;;;;;;8.27;5.38;;;17.10;99.90;;;;;;4979426;28;20023;-82
2021/07/03 06:26:40;;;;;;;6.72;5.15;;;17.10;99.90;;;;;;4979206;28;20038;-83
2021/07/03 06:29:06;;;;;;;8.25;5.30;;;17.20;99.90;;;;;;4996753;28;20482;-82
2021/07/03 06:31:31;;;;;;;7.88;5.43;;;17.30;99.90;;;;;;4979242;28;20030;-82
2021/07/03 06:33:57;;;;;;;6.97;5.63;;;17.30;99.90;;;;;;4979198;28;20109;-82
2021/07/03 06:36:25;;;;;;;7.03;5.55;;;17.50;99.90;;;;;;4978835;28;20022;-82
2021/07/03 06:38:50;;;;;;;7.35;5.82;;;17.50;99.90;;;;;;4996624;28;20363;-83
2021/07/03 06:41:16;;;;;;;7.28;5.60;;;17.50;99.90;;;;;;4979083;28;20088;-82
2021/07/03 06:43:42;;;;;;;7.18;5.10;;;17.70;99.90;;;;;;4979044;28;20478;-82
2021/07/03 06:46:07;;;;;;;8.50;5.00;;;17.80;99.90;;;;;;4978965;28;20030;-83
2021/07/03 06:48:33;;;;;;;6.25;5.60;;;17.90;99.90;;;;;;4996672;28;20022;-82
2021/07/03 06:50:59;;;;;;;7.10;5.30;;;17.90;99.90;;;;;;4978947;28;20023;-81
2021/07/03 06:53:24;;;;;;;6.40;5.35;;;18.00;99.90;;;;;;4978959;28;20022;-82
2021/07/03 06:55:50;;;;;;;11.00;5.47;;;18.20;99.90;;;;;;4978891;28;20061;-82
2021/07/03 06:58:16;;;;;;;7.90;5.65;;;18.30;99.90;;;;;;4978838;28;20054;-82
2021/07/03 07:00:41;;;;;;;5.82;5.20;;;18.30;99.90;;;;;;4978511;28;20501;-83
2021/07/03 07:03:07;;;;;;;7.50;4.90;;;18.50;99.90;;;;;;4996157;28;20031;-81
2021/07/03 07:05:33;;;;;;;7.13;5.32;;;18.50;99.90;;;;;;4996059;28;20026;-83
2021/07/03 07:07:59;;;;;;;6.25;4.70;;;18.40;99.90;;;;;;4996041;28;20475;-80
2021/07/03 07:10:25;;;;;;;6.15;4.72;;;18.60;99.90;;;;;;4978554;28;20131;-80
2021/07/03 07:12:50;;;;;;;10.10;5.53;;;18.70;99.90;;;;;;4978537;28;20482;-80
2021/07/03 07:15:17;;;;;;;10.07;5.63;;;18.90;99.90;;;;;;4978536;28;20113;-83
2021/07/03 07:17:43;;;;;;;8.10;5.13;;;18.90;99.90;;;;;;4978398;28;20078;-80
2021/07/03 07:20:09;;;;;;;7.25;5.07;;;18.90;99.90;;;;;;4978411;28;20030;-82
2021/07/03 07:22:35;;;;;;;11.77;5.53;;;19.00;99.90;;;;;;4995733;28;20041;-82
2021/07/03 07:25:03;;;;;;;7.05;4.85;;;19.00;99.90;;;;;;4995805;28;20027;-80
2021/07/03 07:27:28;;;;;;;9.05;5.13;;;19.10;99.90;;;;;;4995903;28;20026;-80
2021/07/03 07:29:54;;;;;;;8.18;5.60;;;19.20;99.90;;;;;;4995664;28;20109;-80
2021/07/03 07:32:20;;;;;;;8.18;5.25;;;19.20;99.90;;;;;;4995633;28;20022;-84
2021/07/03 07:34:46;;;;;;;8.60;5.97;;;19.30;99.90;;;;;;4978127;28;20050;-80
2021/07/03 07:37:11;;;;;;;10.60;5.18;;;19.40;99.90;;;;;;4978085;28;20034;-80
2021/07/03 07:39:37;;;;;;;8.65;5.75;;;19.60;99.90;;;;;;4995533;28;20037;-83
2021/07/03 07:42:03;;;;;;;9.93;5.95;;;19.70;99.90;;;;;;4977995;28;20026;-83
2021/07/03 07:44:29;;;;;;;11.02;6.57;;;19.80;99.90;;;;;;4977958;28;20065;-83
2021/07/03 07:46:55;;;;;;;7.22;5.38;;;19.90;99.90;;;;;;4977820;28;20066;-82
2021/07/03 07:49:20;;;;;;;6.68;5.10;;;19.90;99.90;;;;;;4977246;28;20037;-83
2021/07/03 07:51:46;;;;;;;7.90;5.00;;;19.90;99.90;;;;;;4995271;28;20023;-83
2021/07/03 07:54:12;;;;;;;7.18;4.82;;;20.10;99.90;;;;;;4977828;28;20030;-83
2021/07/03 07:56:37;;;;;;;7.32;4.85;;;20.20;99.90;;;;;;4977764;28;20398;-83
2021/07/03 07:59:03;;;;;;;9.70;4.90;;;20.30;99.90;;;;;;4995136;28;20471;-83
2021/07/03 08:01:29;;;;;;;5.65;4.50;;;20.20;99.90;;;;;;4994887;28;20046;-85
2021/07/03 08:03:54;;;;;;;7.38;4.63;;;20.20;99.90;;;;;;4977586;28;20022;-85
2021/07/03 08:06:20;;;;;;;5.82;4.55;;;20.40;99.90;;;;;;4977682;28;20026;-85
2021/07/03 08:08:46;;;;;;;5.00;4.20;;;20.50;99.90;;;;;;4977475;28;20426;-83
2021/07/03 08:11:11;;;;;;;6.65;4.03;;;20.60;99.90;;;;;;4977526;28;20473;-83
2021/07/03 08:13:37;;;;;;;5.28;4.13;;;20.80;99.90;;;;;;4995126;28;20018;-83
2021/07/03 08:16:03;;;;;;;5.35;4.40;;;20.80;99.90;;;;;;4977365;28;20027;-83
2021/07/03 08:18:29;;;;;;;7.50;4.47;;;20.80;99.90;;;;;;4977337;28;20041;-84
2021/07/03 08:20:55;;;;;;;7.13;4.10;;;20.90;99.90;;;;;;4977422;28;20026;-82
2021/07/03 08:23:20;;;;;;;5.90;4.00;;;20.90;99.90;;;;;;4977274;28;20057;-82
2021/07/03 08:25:48;;;;;;;7.13;4.55;;;21.00;99.90;;;;;;4977112;28;20390;-82
2021/07/03 08:28:14;;;;;;;5.85;4.13;;;21.00;99.90;;;;;;4994624;28;20462;-82
2021/07/03 08:30:40;;;;;;;7.38;4.20;;;21.30;99.90;;;;;;4977173;28;20072;-85
2021/07/03 08:33:05;;;;;;;5.57;4.13;;;21.30;99.90;;;;;;4977099;28;20113;-82
2021/07/03 08:35:31;;;;;;;6.40;4.18;;;21.40;99.90;;;;;;4977015;28;20030;-82
2021/07/03 08:37:57;;;;;;;4.18;3.78;;;21.40;99.90;;;;;;4994462;28;20030;-82
2021/07/03 08:40:22;;;;;;;6.22;3.90;;;21.50;99.90;;;;;;4976985;28;20034;-85
2021/07/03 08:42:48;;;;;;;10.10;4.13;;;21.60;99.90;;;;;;4994400;28;20054;-82
2021/07/03 08:45:15;;;;;;;4.72;3.97;;;21.60;99.90;;;;;;4976887;28;20121;-83
2021/07/03 08:47:43;;;;;;;7.30;4.25;;;21.60;99.90;;;;;;4994204;28;20026;-82
2021/07/03 08:50:11;;;;;;;6.53;3.70;;;21.80;99.90;;;;;;4976728;28;20042;-84
2021/07/03 08:52:37;;;;;;;5.90;3.78;;;21.90;99.90;;;;;;4976785;28;20018;-83
2021/07/03 08:55:05;;;;;;;7.18;4.38;;;22.10;99.90;;;;;;4976714;28;20026;-82
2021/07/03 08:57:34;;;;;;;5.38;3.95;;;22.10;99.90;;;;;;4976747;28;20025;-82
2021/07/03 09:00:00;;;;;;;4.80;3.88;;;22.20;99.90;;;;;;4976406;28;20425;-84
2021/07/03 09:02:35;;;;;;;4.72;3.80;;;22.20;99.90;;;;;;4994099;28;20055;-83
2021/07/03 09:05:01;;;;;;;5.22;3.95;;;22.30;99.90;;;;;;4994054;28;20042;-85
2021/07/03 09:07:35;;;;;;;5.57;3.78;;;22.50;99.90;;;;;;4976503;28;20058;-82
2021/07/03 09:10:02;;;;;;;6.57;3.75;;;22.70;99.90;;;;;;4976580;28;20018;-82
2021/07/03 09:12:32;;;;;;;6.10;4.22;;;22.80;99.90;;;;;;4976570;28;20050;-82
2021/07/03 09:15:15;;;;;;;4.95;3.40;;;22.80;99.90;;;;;;4976489;28;20367;-82
2021/07/03 09:18:08;;;;;;;8.27;3.80;;;22.90;99.90;;;;;;4993896;28;20479;-82
2021/07/03 09:20:50;;;;;;;6.57;3.65;;;22.90;99.90;;;;;;4990936;28;20117;-82
2021/07/03 09:23:37;;;;;;;4.43;4.00;;;22.90;99.90;;;;;;4976451;28;20030;-81
2021/07/03 09:26:08;;;;;;;7.22;4.18;;;23.20;99.90;;;;;;4976350;28;20030;-82
2021/07/03 09:28:40;;;;;;;4.50;3.10;;;23.30;99.90;;;;;;4993846;28;20026;-81
2021/07/03 09:31:08;;;;;;;4.07;2.92;;;23.40;99.90;;;;;;4976423;28;20026;-81
2021/07/03 09:33:41;;;;;;;3.53;2.83;;;23.40;99.90;;;;;;4976344;28;20069;-81
2021/07/03 09:36:13;;;;;;;3.45;2.58;;;23.40;99.90;;;;;;4976339;28;20030;-81
2021/07/03 09:38:46;;;;;;;5.40;3.33;;;23.50;99.90;;;;;;4976338;28;20053;-81
2021/07/03 09:41:15;;;;;;;6.97;3.00;;;23.60;99.90;;;;;;4976387;28;20121;-81
2021/07/03 09:43:52;;;;;;;4.68;3.40;;;23.70;99.90;;;;;;4976288;28;20030;-82
2021/07/03 09:46:22;;;;;;;8.27;3.47;;;23.80;99.90;;;;;;4993673;28;20022;-81
2021/07/03 09:48:50;;;;;;;3.25;2.95;;;23.80;99.90;;;;;;4993685;28;20029;-81
2021/07/03 09:51:15;;;;;;;6.68;3.10;;;23.90;99.90;;;;;;4993870;28;20521;-82
2021/07/03 09:53:42;;;;;;;3.90;2.70;;;24.20;99.90;;;;;;4993934;28;20102;-82
2021/07/03 09:56:08;;;;;;;3.08;2.60;;;24.40;99.90;;;;;;4976163;28;20022;-82
2021/07/03 09:58:35;;;;;;;6.10;3.35;;;24.30;99.90;;;;;;4976147;28;20026;-82
2021/07/03 10:01:00;;;;;;;6.68;3.30;;;24.30;99.90;;;;;;4975875;28;20042;-82
2021/07/03 10:03:26;;;;;;;3.78;3.28;;;24.40;99.90;;;;;;4993522;28;20037;-82
2021/07/03 10:05:56;;;;;;;6.38;3.10;;;24.50;99.90;;;;;;4975937;28;20037;-81
2021/07/03 10:08:25;;;;;;;4.05;3.03;;;24.70;99.90;;;;;;4976029;28;20081;-81
2021/07/03 10:10:57;;;;;;;5.53;3.40;;;25.00;99.90;;;;;;4975998;28;20025;-81
2021/07/03 10:13:24;;;;;;;5.45;3.40;;;25.30;99.90;;;;;;4978958;28;20559;-82
2021/07/03 10:15:50;;;;;;;4.53;3.45;;;25.40;99.90;;;;;;4979621;28;20018;-84
2021/07/03 10:18:23;;;;;;;3.58;3.13;;;25.50;99.90;;;;;;4980639;28;20038;-85
2021/07/03 10:20:52;;;;;;;5.00;2.88;;;25.40;99.90;;;;;;4996941;28;20027;-83
2021/07/03 10:23:18;;;;;;;11.43;3.35;;;25.70;99.20;;;;;;4981028;28;20147;-82
2021/07/03 10:25:49;;;;;;;4.88;2.83;;;25.70;99.80;;;;;;4979235;28;20058;-81
2021/07/03 10:28:16;;;;;;;4.07;2.50;;;25.90;96.80;;;;;;4996933;28;20027;-81
2021/07/03 10:30:49;;;;;;;2.55;2.30;;;26.20;94.90;;;;;;4979317;28;20033;-81
2021/07/03 10:33:21;;;;;;;4.53;2.75;;;25.80;95.30;;;;;;4979405;28;20112;-82
2021/07/03 10:35:53;;;;;;;4.18;2.90;;;26.10;95.40;;;;;;4979229;28;20470;-82
2021/07/03 10:38:38;;;;;;;5.75;2.85;;;26.10;94.30;;;;;;4996650;28;20034;-82
2021/07/03 10:41:19;;;;;;;5.47;2.63;;;25.90;95.80;;;;;;4979213;28;20026;-82
2021/07/03 10:43:48;;;;;;;5.30;3.00;;;26.30;94.40;;;;;;4979110;28;20081;-83
2021/07/03 10:46:33;;;;;;;6.00;2.90;;;26.00;94.10;;;;;;4979044;28;20073;-83
2021/07/03 10:49:04;;;;;;;5.72;3.30;;;26.40;94.70;;;;;;4979025;28;20026;-83
2021/07/03 10:51:44;;;;;;;3.72;3.00;;;26.50;95.20;;;;;;4996502;28;20554;-82
2021/07/03 10:54:21;;;;;;;7.63;3.05;;;26.60;95.00;;;;;;4978910;28;20029;-83
2021/07/03 10:56:50;;;;;;;4.45;3.00;;;26.60;94.50;;;;;;4996394;28;20019;-83
2021/07/03 10:59:17;;;;;;;3.88;2.50;;;26.90;94.70;;;;;;4978736;28;20478;-83
2021/07/03 11:01:44;;;;;;;2.78;2.53;;;27.20;93.80;;;;;;4978621;28;20518;-82
2021/07/03 11:04:21;;;;;;;5.90;2.90;;;27.60;93.90;;;;;;4996496;28;20073;-83
2021/07/03 11:06:55;;;;;;;5.93;3.03;;;27.50;91.80;;;;;;4978686;28;20058;-83
2021/07/03 11:09:30;;;;;;;6.85;3.10;;;27.10;91.70;;;;;;4996161;28;20073;-83
2021/07/03 11:12:09;;;;;;;3.65;2.63;;;27.50;93.10;;;;;;4978656;28;20030;-83
2021/07/03 11:14:59;;;;;;;4.90;2.17;;;27.80;92.80;;;;;;4979752;28;20358;-82
2021/07/03 11:17:26;;;;;;;2.65;2.20;;;27.90;87.70;;;;;;4995328;28;20114;-83
2021/07/03 11:19:54;;;;;;;3.85;2.28;;;27.70;86.80;;;;;;4995906;28;20031;-82
2021/07/03 11:22:25;;;;;;;3.05;2.28;;;28.00;86.70;;;;;;4978398;28;20490;-82
2021/07/03 11:25:00;;;;;;;3.40;2.38;;;28.60;81.90;;;;;;4977567;28;20026;-83
2021/07/03 11:27:34;;;;;;;2.92;2.30;;;28.50;82.50;;;;;;4978283;28;20026;-82
2021/07/03 11:30:01;;;;;;;;;;;28.60;82.70;;;;;;4996254;28;20485;-83
2021/07/03 11:32:27;;;;;;;2.83;2.22;;;28.70;81.30;;;;;;4978259;28;20277;-83
2021/07/03 11:34:59;;;;;;;4.13;2.00;;;28.60;78.10;;;;;;4978172;28;20023;-81
2021/07/03 11:37:29;;;;;;;5.07;2.45;;;28.70;82.10;;;;;;4995919;28;20018;-81
2021/07/03 11:39:56;;;;;;;3.13;2.30;;;28.40;79.50;;;;;;4978133;28;20034;-81
2021/07/03 11:42:30;;;;;;;2.28;1.92;;;28.70;81.40;;;;;;4978122;28;20030;-82
2021/07/03 11:44:57;;;;;;;3.00;2.13;;;29.40;80.20;;;;;;4978085;28;20030;-81
2021/07/03 11:47:42;;;;;;;3.85;2.13;;;29.60;77.50;;;;;;4995365;28;20490;-81
2021/07/03 11:50:25;;;;;;;3.08;2.10;;;29.40;75.90;;;;;;4977860;28;20046;-81
2021/07/03 11:53:12;;;;;;;3.22;2.13;;;29.20;73.90;;;;;;4965481;28;20042;-81
2021/07/03 11:55:59;;;;;;;3.95;2.40;;;28.70;79.80;;;;;;4977796;28;20556;-80
2021/07/03 11:58:27;;;;;;;2.65;2.30;;;28.90;79.50;;;;;;4977577;28;20544;-81
2021/07/03 12:00:54;;;;;;;2.83;2.15;;;29.50;74.50;;;;;;4994882;28;20561;-81
2021/07/03 12:03:25;;;;;;;4.10;2.33;;;29.80;71.90;;;;;;4995113;28;20065;-81
2021/07/03 12:05:53;;;;;;;4.68;1.98;;;30.00;73.30;;;;;;4977499;28;20494;-81
2021/07/03 12:08:19;;;;;;;2.85;1.75;;;30.70;68.30;;;;;;4994966;28;20069;-81
2021/07/03 12:10:48;;;;;;;2.42;1.90;;;30.80;66.90;;;;;;4977746;28;20089;-81
2021/07/03 12:13:23;;;;;;;4.13;1.90;;;29.90;66.30;;;;;;4977449;28;20026;-82
2021/07/03 12:15:54;;;;;;;4.65;1.73;;;30.10;63.50;;;;;;4995236;28;20478;-81
2021/07/03 12:18:28;;;;;;;2.75;1.90;;;30.60;63.50;;;;;;4977443;28;20451;-81
2021/07/03 12:21:34;;;;;;;3.65;2.15;;;30.80;70.50;;;;;;4994855;28;20047;-81
2021/07/03 12:24:09;;;;;;;2.92;2.05;;;31.50;66.50;;;;;;4995078;28;20378;-82
2021/07/03 12:26:37;;;;;;;2.03;1.83;;;31.50;64.50;;;;;;4977148;28;20034;-82
2021/07/03 12:29:08;;;;;;;3.88;2.00;;;31.40;64.00;;;;;;4994661;28;20097;-81
2021/07/03 12:31:39;;;;;;;2.42;2.00;;;32.00;65.50;;;;;;4977160;28;20027;-81
2021/07/03 12:34:09;;;;;;;4.90;2.10;;;32.20;63.30;;;;;;4994578;28;20018;-82
2021/07/03 12:36:37;;;;;;;3.25;1.95;;;32.40;63.40;;;;;;4994270;28;20118;-81
2021/07/03 12:39:12;;;;;;;3.15;2.05;;;32.10;62.80;;;;;;4976997;28;20121;-81
2021/07/03 12:41:39;;;;;;;4.03;2.25;;;32.00;62.10;;;;;;4977020;28;20056;-80
2021/07/03 12:44:05;;;;;;;2.80;2.05;;;31.70;62.20;;;;;;4976932;28;20121;-80
2021/07/03 12:46:32;;;;;;;2.13;1.90;;;31.70;63.60;;;;;;4976843;28;20122;-82
2021/07/03 12:48:59;;;;;;;3.03;2.10;;;31.70;63.00;;;;;;4976889;28;20077;-82